createdAt,value
2023-03-27T00:00:27.759Z,994.5
2023-03-27T00:00:53.000Z,994.6
2023-03-27T00:01:42.965Z,994.5
2023-03-27T00:02:45.000Z,994.5
2023-03-27T00:04:15.105Z,994.5
2023-03-27T00:05:55.448Z,994.5
2023-03-27T00:08:02.713Z,994.6
2023-03-27T00:09:17.924Z,994.7
2023-03-27T00:10:20.000Z,994.7
2023-03-27T00:11:49.339Z,994.8
2023-03-27T00:13:04.549Z,994.8
2023-03-27T00:14:20.744Z,994.8
2023-03-27T00:15:23.000Z,994.9
2023-03-27T00:16:39.000Z,994.9
2023-03-27T00:18:09.326Z,994.9
2023-03-27T00:19:25.765Z,994.9
2023-03-27T00:20:41.714Z,994.9
2023-03-27T00:21:58.156Z,995
2023-03-27T00:23:00.000Z,995
2023-03-27T00:24:30.295Z,995
2023-03-27T00:25:46.489Z,995
2023-03-27T00:27:02.683Z,995
2023-03-27T00:28:18.877Z,995.1
2023-03-27T00:29:34.337Z,995.2
2023-03-27T00:30:50.532Z,995.2
2023-03-27T00:32:06.475Z,995.2
2023-03-27T00:33:22.669Z,995.2
2023-03-27T00:34:38.863Z,995.2
2023-03-27T00:35:55.318Z,995.1
2023-03-27T00:36:58.000Z,995.2
2023-03-27T00:38:26.716Z,995.2
2023-03-27T00:39:41.682Z,995.2
2023-03-27T00:40:44.000Z,995.3
2023-03-27T00:42:14.323Z,995.3
2023-03-27T00:43:17.000Z,995.3
2023-03-27T00:44:45.739Z,995.3
2023-03-27T00:46:00.941Z,995.3
2023-03-27T00:47:17.131Z,995.3
2023-03-27T00:48:19.000Z,995.3
2023-03-27T00:49:49.518Z,995.4
2023-03-27T00:52:03.387Z,995.4
2023-03-27T00:52:21.915Z,995.3
2023-03-27T00:53:24.000Z,995.5
2023-03-27T00:54:54.052Z,995.4
2023-03-27T00:56:10.247Z,995.4
2023-03-27T00:57:26.440Z,995.5
2023-03-27T00:58:42.634Z,995.4
2023-03-27T00:59:59.076Z,995.4
2023-03-27T01:01:01.000Z,995.5
2023-03-27T01:02:30.234Z,995.5
2023-03-27T01:03:46.427Z,995.5
2023-03-27T01:05:02.621Z,995.6
2023-03-27T01:06:18.815Z,995.6
2023-03-27T01:07:35.009Z,995.6
2023-03-27T01:08:51.447Z,995.7
2023-03-27T01:10:07.646Z,995.6
2023-03-27T01:11:09.000Z,995.6
2023-03-27T01:12:38.085Z,995.7
2023-03-27T01:13:40.000Z,995.7
2023-03-27T01:15:09.500Z,995.6
2023-03-27T01:16:11.000Z,995.6
2023-03-27T01:17:40.657Z,995.7
2023-03-27T01:18:56.851Z,995.6
2023-03-27T01:19:59.000Z,995.7
2023-03-27T01:21:29.239Z,995.7
2023-03-27T01:22:45.702Z,995.7
2023-03-27T01:24:01.879Z,995.7
2023-03-27T01:25:17.820Z,995.7
2023-03-27T01:26:34.260Z,995.8
2023-03-27T01:27:50.208Z,995.8
2023-03-27T01:28:53.000Z,995.8
2023-03-27T01:30:22.846Z,995.9
2023-03-27T01:31:38.790Z,995.9
2023-03-27T01:32:40.000Z,995.9
2023-03-27T01:34:10.445Z,996
2023-03-27T01:35:26.388Z,996
2023-03-27T01:36:42.582Z,996
2023-03-27T01:37:59.033Z,996
2023-03-27T01:39:01.000Z,996
2023-03-27T01:40:31.422Z,996.1
2023-03-27T01:41:34.000Z,996.1
2023-03-27T01:43:02.579Z,996.1
2023-03-27T01:44:17.789Z,996.1
2023-03-27T01:45:34.238Z,996.1
2023-03-27T01:46:50.177Z,996.1
2023-03-27T01:48:06.371Z,996.1
2023-03-27T01:49:22.565Z,996.1
2023-03-27T01:50:24.000Z,996.1
2023-03-27T01:51:52.996Z,996.2
2023-03-27T01:53:09.190Z,996.2
2023-03-27T01:54:12.000Z,996.2
2023-03-27T01:55:41.578Z,996.2
2023-03-27T01:56:57.772Z,996.2
2023-03-27T01:58:13.966Z,996.2
2023-03-27T01:59:16.000Z,996.3
2023-03-27T02:00:46.353Z,996.3
2023-03-27T02:01:49.000Z,996.3
2023-03-27T02:03:18.991Z,996.3
2023-03-27T02:04:34.936Z,996.3
2023-03-27T02:05:51.130Z,996.3
2023-03-27T02:06:54.000Z,996.3
2023-03-27T02:08:22.535Z,996.3
2023-03-27T02:09:38.728Z,996.3
2023-03-27T02:10:41.000Z,996.4
2023-03-27T02:12:11.361Z,996.4
2023-03-27T02:13:27.310Z,996.3
2023-03-27T02:14:43.504Z,996.4
2023-03-27T02:15:59.698Z,996.4
2023-03-27T02:17:14.918Z,996.4
2023-03-27T02:18:30.129Z,996.4
2023-03-27T02:19:33.000Z,996.4
2023-03-27T02:21:01.543Z,996.4
2023-03-27T02:22:16.753Z,996.5
2023-03-27T02:23:33.199Z,996.5
2023-03-27T02:24:49.141Z,996.6
2023-03-27T02:26:05.335Z,996.6
2023-03-27T02:27:21.770Z,996.6
2023-03-27T02:28:37.723Z,996.6
2023-03-27T02:29:40.000Z,996.6
2023-03-27T02:31:10.379Z,996.7
2023-03-27T02:32:44.692Z,996.7
2023-03-27T02:33:42.498Z,996.8
2023-03-27T02:34:58.944Z,996.8
2023-03-27T02:36:14.886Z,996.8
2023-03-27T02:37:31.080Z,996.8
2023-03-27T02:38:46.542Z,996.8
2023-03-27T02:40:02.484Z,996.9
2023-03-27T02:41:05.000Z,996.9
2023-03-27T02:42:34.873Z,996.9
2023-03-27T02:43:51.067Z,997
2023-03-27T02:44:54.000Z,996.9
2023-03-27T02:46:23.720Z,997
2023-03-27T02:47:38.675Z,997
2023-03-27T02:48:53.886Z,997
2023-03-27T02:50:10.079Z,997.1
2023-03-27T02:51:25.300Z,997.1
2023-03-27T02:52:40.764Z,997.1
2023-03-27T02:53:56.946Z,997.1
2023-03-27T02:55:12.899Z,997.1
2023-03-27T02:56:29.093Z,997.1
2023-03-27T02:57:45.287Z,997.2
2023-03-27T02:58:48.000Z,997.2
2023-03-27T03:00:17.675Z,997.2
2023-03-27T03:01:34.122Z,997.3
2023-03-27T03:02:50.306Z,997.3
2023-03-27T03:04:06.257Z,997.2
2023-03-27T03:05:22.451Z,997.3
2023-03-27T03:06:38.645Z,997.3
2023-03-27T03:07:41.000Z,997.3
2023-03-27T03:09:10.050Z,997.4
2023-03-27T03:10:26.244Z,997.3
2023-03-27T03:11:42.686Z,997.4
2023-03-27T03:12:58.632Z,997.4
2023-03-27T03:14:14.826Z,997.3
2023-03-27T03:15:31.020Z,997.4
2023-03-27T03:16:47.214Z,997.4
2023-03-27T03:18:02.434Z,997.5
2023-03-27T03:19:17.645Z,997.5
2023-03-27T03:20:20.000Z,997.5
2023-03-27T03:21:49.060Z,997.6
2023-03-27T03:23:04.270Z,997.6
2023-03-27T03:24:20.713Z,997.5
2023-03-27T03:25:36.659Z,997.5
2023-03-27T03:26:52.852Z,997.6
2023-03-27T03:28:09.046Z,997.7
2023-03-27T03:29:25.240Z,997.6
2023-03-27T03:30:41.434Z,997.6
2023-03-27T03:31:57.628Z,997.7
2023-03-27T03:33:00.000Z,997.7
2023-03-27T03:34:30.016Z,997.7
2023-03-27T03:36:24.273Z,997.7
2023-03-27T03:37:02.650Z,997.7
2023-03-27T03:38:18.598Z,997.8
2023-03-27T03:39:20.000Z,997.8
2023-03-27T03:40:50.003Z,997.9
2023-03-27T03:42:06.196Z,997.9
2023-03-27T03:43:09.000Z,997.9
2023-03-27T03:44:38.585Z,997.9
2023-03-27T03:45:41.000Z,998
2023-03-27T03:47:10.973Z,998
2023-03-27T03:48:26.193Z,998
2023-03-27T03:49:41.662Z,998
2023-03-27T03:50:57.597Z,998
2023-03-27T03:52:13.791Z,998.1
2023-03-27T03:53:16.000Z,998.1
2023-03-27T03:54:45.462Z,998.2
2023-03-27T03:56:00.417Z,998.2
2023-03-27T03:57:16.611Z,998.2
2023-03-27T03:58:19.000Z,998.2
2023-03-27T03:59:49.244Z,998.3
2023-03-27T04:02:02.127Z,998.3
2023-03-27T04:02:21.637Z,998.2
2023-03-27T04:03:24.000Z,998.2
2023-03-27T04:04:53.775Z,998.2
2023-03-27T04:06:09.969Z,998.2
2023-03-27T04:07:12.000Z,998.3
2023-03-27T04:08:42.357Z,998.4
2023-03-27T04:09:58.554Z,998.3
2023-03-27T04:11:01.000Z,998.4
2023-03-27T04:12:29.960Z,998.4
2023-03-27T04:13:32.000Z,998.4
2023-03-27T04:15:02.351Z,998.3
2023-03-27T04:16:18.545Z,998.4
2023-03-27T04:17:34.740Z,998.4
2023-03-27T04:18:50.935Z,998.4
2023-03-27T04:20:07.131Z,998.5
2023-03-27T04:21:22.353Z,998.5
2023-03-27T04:22:37.820Z,998.5
2023-03-27T04:23:52.787Z,998.5
2023-03-27T04:25:08.000Z,998.5
2023-03-27T04:26:11.000Z,998.5
2023-03-27T04:27:40.391Z,998.5
2023-03-27T04:28:43.000Z,998.5
2023-03-27T04:30:12.782Z,998.6
2023-03-27T04:31:28.976Z,998.6
2023-03-27T04:32:45.173Z,998.7
2023-03-27T04:34:01.367Z,998.6
2023-03-27T04:35:17.564Z,998.7
2023-03-27T04:36:34.012Z,998.7
2023-03-27T04:37:49.955Z,998.7
2023-03-27T04:40:03.889Z,998.8
2023-03-27T04:40:22.347Z,998.8
2023-03-27T04:41:37.810Z,998.8
2023-03-27T04:42:40.000Z,998.7
2023-03-27T04:44:09.950Z,998.8
2023-03-27T04:45:26.146Z,998.8
2023-03-27T04:46:29.000Z,998.8
2023-03-27T04:47:58.786Z,998.9
2023-03-27T04:49:01.000Z,998.8
2023-03-27T04:50:29.956Z,998.9
2023-03-27T04:51:45.412Z,998.8
2023-03-27T04:52:47.000Z,998.9
2023-03-27T04:54:02.000Z,998.9
2023-03-27T04:55:18.000Z,999
2023-03-27T04:56:48.239Z,999
2023-03-27T04:58:04.191Z,999
2023-03-27T04:58:31.000Z,999.2
2023-03-27T04:59:20.386Z,999.1
2023-03-27T05:00:36.583Z,999.1
2023-03-27T05:01:39.000Z,999.1
2023-03-27T05:03:09.225Z,999.2
2023-03-27T05:05:28.000Z,999.2
2023-03-27T05:06:57.562Z,999.2
2023-03-27T05:08:00.000Z,999.2
2023-03-27T05:09:29.954Z,999.3
2023-03-27T05:10:31.000Z,999.3
2023-03-27T05:12:01.362Z,999.3
2023-03-27T05:13:17.558Z,999.3
2023-03-27T05:14:33.754Z,999.3
2023-03-27T05:15:36.000Z,999.3
2023-03-27T05:16:52.000Z,999.2
2023-03-27T05:18:22.343Z,999.4
2023-03-27T05:19:37.565Z,999.4
2023-03-27T05:20:39.000Z,999.4
2023-03-27T05:22:08.972Z,999.5
2023-03-27T05:23:24.195Z,999.5
2023-03-27T05:24:39.406Z,999.5
2023-03-27T05:25:55.852Z,999.4
2023-03-27T05:27:11.799Z,999.4
2023-03-27T05:28:27.995Z,999.4
2023-03-27T05:29:43.458Z,999.5
2023-03-27T05:30:46.000Z,999.5
2023-03-27T05:32:15.604Z,999.5
2023-03-27T05:33:32.047Z,999.5
2023-03-27T05:34:47.996Z,999.5
2023-03-27T05:36:04.439Z,999.5
2023-03-27T05:37:20.389Z,999.5
2023-03-27T05:38:36.585Z,999.6
2023-03-27T05:39:39.000Z,999.6
2023-03-27T05:41:09.223Z,999.6
2023-03-27T05:42:11.000Z,999.6
2023-03-27T05:43:41.369Z,999.6
2023-03-27T05:44:44.000Z,999.7
2023-03-27T05:46:13.023Z,999.7
2023-03-27T05:47:15.000Z,999.7
2023-03-27T05:48:45.424Z,999.7
2023-03-27T05:49:47.000Z,999.7
2023-03-27T05:51:15.603Z,999.8
2023-03-27T05:52:18.000Z,999.7
2023-03-27T05:53:47.020Z,999.8
2023-03-27T05:55:02.477Z,999.8
2023-03-27T05:56:18.429Z,999.9
2023-03-27T05:57:34.624Z,999.9
2023-03-27T05:58:37.000Z,999.9
2023-03-27T06:00:07.016Z,999.9
2023-03-27T06:01:23.459Z,999.9
2023-03-27T06:02:39.658Z,999.9
2023-03-27T06:03:55.605Z,999.9
2023-03-27T06:05:14.085Z,999.9
2023-03-27T06:06:27.997Z,999.9
2023-03-27T06:07:30.000Z,1000
2023-03-27T06:09:00.389Z,1000
2023-03-27T06:10:16.584Z,1000
2023-03-27T06:11:32.044Z,1000
2023-03-27T06:12:47.991Z,1000
2023-03-27T06:13:50.000Z,1000
2023-03-27T06:15:20.383Z,1000
2023-03-27T06:16:36.579Z,1000.1
2023-03-27T06:17:39.000Z,1000.1
2023-03-27T06:19:09.212Z,1000.1
2023-03-27T06:20:10.000Z,1000.1
2023-03-27T06:20:48.000Z,1000.2
2023-03-27T06:21:26.000Z,1000.1
2023-03-27T06:22:55.857Z,1000.1
2023-03-27T06:24:11.796Z,1000.1
2023-03-27T06:25:13.000Z,1000.1
2023-03-27T06:27:45.000Z,1000.2
2023-03-27T06:29:14.621Z,1000.2
2023-03-27T06:30:17.000Z,1000.2
2023-03-27T06:31:47.013Z,1000.3
2023-03-27T06:32:50.000Z,1000.3
2023-03-27T06:34:19.404Z,1000.4
2023-03-27T06:35:35.600Z,1000.4
2023-03-27T06:36:51.796Z,1000.4
2023-03-27T06:37:54.000Z,1000.4
2023-03-27T06:39:24.188Z,1000.4
2023-03-27T06:40:40.383Z,1000.4
2023-03-27T06:41:56.579Z,1000.4
2023-03-27T06:42:58.000Z,1000.3
2023-03-27T06:44:28.248Z,1000.3
2023-03-27T06:45:30.000Z,1000.4
2023-03-27T06:47:00.625Z,1000.3
2023-03-27T06:48:16.575Z,1000.3
2023-03-27T06:49:32.771Z,1000.4
2023-03-27T06:50:48.966Z,1000.5
2023-03-27T06:52:04.190Z,1000.5
2023-03-27T06:53:19.401Z,1000.4
2023-03-27T06:54:34.624Z,1000.4
2023-03-27T06:55:36.000Z,1000.4
2023-03-27T06:57:06.286Z,1000.5
2023-03-27T06:58:09.000Z,1000.5
2023-03-27T06:59:38.424Z,1000.5
2023-03-27T07:00:54.619Z,1000.5
2023-03-27T07:01:57.000Z,1000.6
2023-03-27T07:03:43.998Z,1000.5
2023-03-27T07:04:43.207Z,1000.6
2023-03-27T07:05:59.659Z,1000.7
2023-03-27T07:07:15.599Z,1000.6
2023-03-27T07:08:18.000Z,1000.7
2023-03-27T07:09:34.000Z,1000.7
2023-03-27T07:11:59.137Z,1000.7
2023-03-27T07:12:19.399Z,1000.8
2023-03-27T07:13:22.000Z,1000.8
2023-03-27T07:14:51.791Z,1000.8
2023-03-27T07:16:07.986Z,1000.8
2023-03-27T07:17:24.183Z,1000.8
2023-03-27T07:18:40.378Z,1000.9
2023-03-27T07:19:56.574Z,1001
2023-03-27T07:20:58.000Z,1000.9
2023-03-27T07:22:27.008Z,1000.9
2023-03-27T07:24:17.086Z,1001
2023-03-27T07:24:58.426Z,1000.9
2023-03-27T07:26:13.638Z,1001
2023-03-27T07:27:29.834Z,1001
2023-03-27T07:28:46.278Z,1001
2023-03-27T07:30:02.226Z,1001.1
2023-03-27T07:31:18.421Z,1001
2023-03-27T07:32:34.879Z,1001
2023-03-27T07:33:50.813Z,1001
2023-03-27T07:35:07.009Z,1001
2023-03-27T07:36:37.020Z,1001.1
2023-03-27T07:37:39.401Z,1001.1
2023-03-27T07:38:42.000Z,1001
2023-03-27T07:40:11.792Z,1001.1
2023-03-27T07:41:14.000Z,1001.1
2023-03-27T07:42:43.200Z,1001.1
2023-03-27T07:43:59.396Z,1001.1
2023-03-27T07:45:15.838Z,1001.2
2023-03-27T07:46:18.000Z,1001.1
2023-03-27T07:47:47.983Z,1001.2
2023-03-27T07:49:58.933Z,1001.2
2023-03-27T07:50:20.375Z,1001.2
2023-03-27T07:51:36.570Z,1001.3
2023-03-27T07:52:52.048Z,1001.1
2023-03-27T07:54:08.234Z,1001.3
2023-03-27T07:55:23.212Z,1001.3
2023-03-27T07:56:38.423Z,1001.3
2023-03-27T07:57:54.868Z,1001.3
2023-03-27T07:59:11.063Z,1001.4
2023-03-27T08:00:13.000Z,1001.3
2023-03-27T08:01:30.000Z,1001.4
2023-03-27T08:02:59.403Z,1001.4
2023-03-27T08:04:15.598Z,1001.4
2023-03-27T08:05:31.794Z,1001.4
2023-03-27T08:06:47.989Z,1001.4
2023-03-27T08:08:04.430Z,1001.5
2023-03-27T08:09:20.380Z,1001.5
2023-03-27T08:10:36.576Z,1001.4
2023-03-27T08:11:52.772Z,1001.5
2023-03-27T08:13:07.983Z,1001.5
2023-03-27T08:14:24.417Z,1001.5
2023-03-27T08:15:27.000Z,1001.5
2023-03-27T08:16:56.570Z,1001.5
2023-03-27T08:18:13.025Z,1001.4
2023-03-27T08:19:28.962Z,1001.4
2023-03-27T08:20:31.000Z,1001.5
2023-03-27T08:22:00.379Z,1001.4
2023-03-27T08:23:15.591Z,1001.4
2023-03-27T08:24:53.353Z,1001.5
2023-03-27T08:25:47.009Z,1001.4
2023-03-27T08:26:49.000Z,1001.5
2023-03-27T08:28:18.416Z,1001.5
2023-03-27T08:29:34.611Z,1001.5
2023-03-27T08:30:51.052Z,1001.5
2023-03-27T08:32:07.003Z,1001.5
2023-03-27T08:33:09.000Z,1001.5
2023-03-27T08:34:39.394Z,1001.5
2023-03-27T08:35:55.590Z,1001.6
2023-03-27T08:37:11.785Z,1001.6
2023-03-27T08:38:27.981Z,1001.6
2023-03-27T08:39:30.000Z,1001.6
2023-03-27T08:41:00.372Z,1001.6
2023-03-27T08:42:16.568Z,1001.7
2023-03-27T08:43:32.029Z,1001.7
2023-03-27T08:45:25.435Z,1001.6
2023-03-27T08:47:30.811Z,1001.7
2023-03-27T08:49:39.000Z,1001.7
2023-03-27T08:51:08.226Z,1001.7
2023-03-27T08:52:24.176Z,1001.7
2023-03-27T08:53:39.388Z,1001.8
2023-03-27T08:54:55.583Z,1001.8
2023-03-27T08:56:12.031Z,1001.8
2023-03-27T08:57:27.975Z,1001.8
2023-03-27T08:58:44.171Z,1001.8
2023-03-27T09:00:50.748Z,1001.9
2023-03-27T09:01:16.803Z,1001.8
2023-03-27T09:02:32.757Z,1001.9
2023-03-27T09:03:48.954Z,1001.8
2023-03-27T09:04:51.000Z,1001.9
2023-03-27T09:06:20.625Z,1001.9
2023-03-27T09:07:35.584Z,1001.9
2023-03-27T09:08:51.780Z,1002
2023-03-27T09:10:07.975Z,1002
2023-03-27T09:11:24.171Z,1002
2023-03-27T09:12:40.367Z,1002
2023-03-27T09:13:56.563Z,1002
2023-03-27T09:14:59.000Z,1002
2023-03-27T09:16:29.206Z,1002
2023-03-27T09:17:45.150Z,1002
2023-03-27T09:18:11.000Z,1002
2023-03-27T09:19:01.346Z,1001.9
2023-03-27T09:20:17.792Z,1001.9
2023-03-27T09:21:33.994Z,1001.9
2023-03-27T09:23:29.194Z,1002
2023-03-27T09:25:21.341Z,1002
2023-03-27T09:26:37.537Z,1002
2023-03-27T09:27:53.732Z,1002
2023-03-27T09:29:10.197Z,1002
2023-03-27T09:30:26.123Z,1002
2023-03-27T09:31:42.319Z,1002
2023-03-27T09:32:45.000Z,1002
2023-03-27T09:34:14.954Z,1001.9
2023-03-27T09:35:30.906Z,1002
2023-03-27T09:36:47.350Z,1002
2023-03-27T09:38:03.297Z,1001.9
2023-03-27T09:39:18.770Z,1002
2023-03-27T09:40:33.979Z,1002
2023-03-27T09:41:49.201Z,1002
2023-03-27T09:43:04.416Z,1001.9
2023-03-27T09:44:20.362Z,1002
2023-03-27T09:45:35.579Z,1002
2023-03-27T09:46:51.775Z,1002.1
2023-03-27T09:49:05.102Z,1002.2
2023-03-27T09:49:24.414Z,1002.2
2023-03-27T09:50:40.362Z,1002.2
2023-03-27T09:51:56.558Z,1002.2
2023-03-27T09:52:59.000Z,1002.3
2023-03-27T09:54:28.950Z,1002.3
2023-03-27T09:55:45.146Z,1002.3
2023-03-27T09:56:48.000Z,1002.4
2023-03-27T09:58:04.000Z,1002.3
2023-03-27T09:59:33.735Z,1002.3
2023-03-27T10:00:49.930Z,1002.3
2023-03-27T10:02:05.396Z,1002.3
2023-03-27T10:03:32.387Z,1002.3
2023-03-27T10:04:37.536Z,1002.3
2023-03-27T10:05:53.731Z,1002.3
2023-03-27T10:07:10.170Z,1002.3
2023-03-27T10:08:12.000Z,1002.3
2023-03-27T10:09:41.346Z,1002.4
2023-03-27T10:10:43.000Z,1002.3
2023-03-27T10:12:12.753Z,1002.3
2023-03-27T10:13:27.976Z,1002.4
2023-03-27T10:14:43.188Z,1002.4
2023-03-27T10:15:46.000Z,1002.4
2023-03-27T10:17:15.580Z,1002.4
2023-03-27T10:18:52.746Z,1002.3
2023-03-27T10:19:47.972Z,1002.4
2023-03-27T10:21:04.167Z,1002.4
2023-03-27T10:22:20.364Z,1002.4
2023-03-27T10:23:23.000Z,1002.4
2023-03-27T10:24:52.756Z,1002.3
2023-03-27T10:26:35.000Z,1002.6
2023-03-27T10:27:06.885Z,1002.5
2023-03-27T10:27:25.148Z,1002.5
2023-03-27T10:28:41.343Z,1002.5
2023-03-27T10:29:57.795Z,1002.5
2023-03-27T10:31:14.654Z,1002.5
2023-03-27T10:33:45.394Z,1002.5
2023-03-27T10:35:01.339Z,1002.5
2023-03-27T10:36:17.535Z,1002.6
2023-03-27T10:37:33.978Z,1002.6
2023-03-27T10:38:49.926Z,1002.6
2023-03-27T10:40:05.149Z,1002.6
2023-03-27T10:41:20.360Z,1002.6
2023-03-27T10:42:36.557Z,1002.6
2023-03-27T10:43:51.779Z,1002.6
2023-03-27T10:45:06.991Z,1002.7
2023-03-27T10:46:09.000Z,1002.6
2023-03-27T10:47:39.383Z,1002.6
2023-03-27T10:48:55.579Z,1002.7
2023-03-27T10:50:11.776Z,1002.6
2023-03-27T10:51:27.971Z,1002.7
2023-03-27T10:52:44.167Z,1002.7
2023-03-27T10:54:00.362Z,1002.7
2023-03-27T10:55:16.558Z,1002.6
2023-03-27T10:59:05.145Z,1002.5
2023-03-27T11:00:20.616Z,1002.6
2023-03-27T11:01:36.564Z,1002.6
2023-03-27T11:02:51.777Z,1002.6
2023-03-27T11:03:54.000Z,1002.5
2023-03-27T11:05:24.168Z,1002.5
2023-03-27T11:06:40.363Z,1002.5
2023-03-27T11:07:56.559Z,1002.5
2023-03-27T11:08:59.000Z,1002.5
2023-03-27T11:10:28.951Z,1002.6
2023-03-27T11:11:31.000Z,1002.7
2023-03-27T11:13:01.585Z,1002.6
2023-03-27T11:14:17.538Z,1002.5
2023-03-27T11:15:32.761Z,1002.5
2023-03-27T11:16:35.000Z,1002.6
2023-03-27T11:18:04.417Z,1002.5
2023-03-27T11:19:20.619Z,1002.6
2023-03-27T11:20:36.561Z,1002.6
2023-03-27T11:21:39.000Z,1002.6
2023-03-27T11:22:19.000Z,1002.8
2023-03-27T11:23:09.198Z,1002.7
2023-03-27T11:24:11.000Z,1002.6
2023-03-27T11:25:41.345Z,1002.7
2023-03-27T11:26:57.540Z,1002.7
2023-03-27T11:29:29.932Z,1002.8
2023-03-27T11:30:46.128Z,1002.8
2023-03-27T11:32:02.325Z,1002.8
2023-03-27T11:33:18.522Z,1002.8
2023-03-27T11:35:31.237Z,1002.7
2023-03-27T11:35:50.182Z,1002.8
2023-03-27T11:37:06.126Z,1002.7
2023-03-27T11:38:22.322Z,1002.8
2023-03-27T11:39:38.518Z,1002.8
2023-03-27T11:40:54.714Z,1002.7
2023-03-27T11:41:56.000Z,1002.8
2023-03-27T11:43:25.395Z,1002.9
2023-03-27T11:44:40.370Z,1002.9
2023-03-27T11:45:55.582Z,1002.8
2023-03-27T11:47:47.213Z,1002.9
2023-03-27T11:48:28.225Z,1002.9
2023-03-27T11:49:44.170Z,1002.9
2023-03-27T11:51:00.366Z,1002.9
2023-03-27T11:52:16.562Z,1002.8
2023-03-27T11:53:32.758Z,1002.9
2023-03-27T11:54:35.000Z,1002.9
2023-03-27T11:56:05.150Z,1002.9
2023-03-27T11:56:31.000Z,1003
2023-03-27T11:57:21.345Z,1003
2023-03-27T11:58:37.541Z,1002.9
2023-03-27T12:00:11.105Z,1002.9
2023-03-27T12:01:10.181Z,1002.9
2023-03-27T12:03:41.341Z,1002.8
2023-03-27T12:04:57.537Z,1002.9
2023-03-27T12:06:13.983Z,1002.9
2023-03-27T12:07:29.929Z,1002.9
2023-03-27T12:08:46.125Z,1002.9
2023-03-27T12:10:02.321Z,1002.9
2023-03-27T12:11:18.518Z,1002.9
2023-03-27T12:12:33.989Z,1002.9
2023-03-27T12:13:48.952Z,1002.9
2023-03-27T12:15:05.394Z,1003
2023-03-27T12:16:20.622Z,1002.9
2023-03-27T12:17:23.000Z,1002.9
2023-03-27T12:18:51.779Z,1002.9
2023-03-27T12:20:07.975Z,1002.9
2023-03-27T12:21:24.171Z,1002.9
2023-03-27T12:22:40.366Z,1002.8
2023-03-27T12:23:56.819Z,1002.8
2023-03-27T12:25:48.995Z,1002.7
2023-03-27T12:26:28.955Z,1002.7
2023-03-27T12:27:45.150Z,1002.8
2023-03-27T12:29:01.346Z,1002.8
2023-03-27T12:30:04.000Z,1002.8
2023-03-27T12:31:34.000Z,1002.9
2023-03-27T12:32:49.934Z,1002.8
2023-03-27T12:34:06.381Z,1002.8
2023-03-27T12:35:21.613Z,1002.9
2023-03-27T12:36:37.538Z,1002.9
2023-03-27T12:37:53.978Z,1002.8
2023-03-27T12:39:10.184Z,1002.9
2023-03-27T12:40:12.000Z,1002.9
2023-03-27T12:41:42.322Z,1003
2023-03-27T12:42:57.544Z,1002.9
2023-03-27T12:44:13.740Z,1003
2023-03-27T12:45:28.952Z,1003.2
2023-03-27T12:46:45.149Z,1003.2
2023-03-27T12:48:01.344Z,1003.3
2023-03-27T12:49:17.783Z,1003.3
2023-03-27T12:50:33.736Z,1003.3
2023-03-27T12:51:35.000Z,1003.4
2023-03-27T12:53:05.154Z,1003.4
2023-03-27T12:54:20.367Z,1003.4
2023-03-27T12:55:23.000Z,1003.4
2023-03-27T12:56:52.759Z,1003.4
2023-03-27T12:58:08.955Z,1003.4
2023-03-27T12:59:25.151Z,1003.4
2023-03-27T13:00:46.394Z,1003.4
2023-03-27T13:01:57.543Z,1003.4
2023-03-27T13:03:13.740Z,1003.4
2023-03-27T13:04:29.937Z,1003.4
2023-03-27T13:05:46.132Z,1003.4
2023-03-27T13:07:02.328Z,1003.4
2023-03-27T13:08:18.524Z,1003.5
2023-03-27T13:09:34.977Z,1003.5
2023-03-27T13:10:37.000Z,1003.4
2023-03-27T13:12:06.129Z,1003.4
2023-03-27T13:13:22.325Z,1003.5
2023-03-27T13:14:38.522Z,1003.4
2023-03-27T13:15:54.718Z,1003.4
2023-03-27T13:17:10.914Z,1003.4
2023-03-27T13:18:26.136Z,1003.4
2023-03-27T13:19:41.348Z,1003.4
2023-03-27T13:20:57.797Z,1003.4
2023-03-27T13:22:13.740Z,1003.4
2023-03-27T13:23:29.936Z,1003.3
2023-03-27T13:24:45.159Z,1003.2
2023-03-27T13:26:00.370Z,1003.2
2023-03-27T13:27:16.567Z,1003.3
2023-03-27T13:28:32.762Z,1003.4
2023-03-27T13:29:49.206Z,1003.2
2023-03-27T13:31:34.046Z,1003.4
2023-03-27T13:32:21.606Z,1003.3
2023-03-27T13:33:24.000Z,1003.3
2023-03-27T13:34:53.743Z,1003.4
2023-03-27T13:36:09.940Z,1003.4
2023-03-27T13:37:12.000Z,1003.3
2023-03-27T13:38:29.000Z,1003.3
2023-03-27T13:39:58.528Z,1003.3
2023-03-27T13:41:01.000Z,1003.3
2023-03-27T13:42:30.183Z,1003.4
2023-03-27T13:43:55.947Z,1003.4
2023-03-27T13:45:02.562Z,1003.3
2023-03-27T13:46:18.512Z,1003.4
2023-03-27T13:47:34.705Z,1003.4
2023-03-27T13:48:50.899Z,1003.4
2023-03-27T13:50:07.344Z,1003.4
2023-03-27T13:51:22.565Z,1003.4
2023-03-27T13:52:37.523Z,1003.4
2023-03-27T13:53:53.957Z,1003.4
2023-03-27T13:55:09.182Z,1003.4
2023-03-27T13:56:10.000Z,1003.3
2023-03-27T13:57:40.592Z,1003.3
2023-03-27T13:58:56.790Z,1003.4
2023-03-27T13:59:58.000Z,1003.4
2023-03-27T14:01:27.945Z,1003.4
2023-03-27T14:02:44.394Z,1003.4
2023-03-27T14:03:47.000Z,1003.5
2023-03-27T14:05:16.526Z,1003.5
2023-03-27T14:07:28.427Z,1003.7
2023-03-27T14:07:35.000Z,1003.7
2023-03-27T14:09:33.799Z,1003.7
2023-03-27T14:10:21.302Z,1003.9
2023-03-27T14:10:47.000Z,1004.2
2023-03-27T14:11:37.495Z,1004
2023-03-27T14:12:53.689Z,1004.2
2023-03-27T14:13:56.000Z,1004.1
2023-03-27T14:15:26.330Z,1004.1
2023-03-27T14:17:57.481Z,1004.3
2023-03-27T14:19:00.000Z,1004.1
2023-03-27T14:20:29.868Z,1004
2023-03-27T14:21:46.062Z,1004
2023-03-27T14:23:01.533Z,1003.9
2023-03-27T14:24:03.000Z,1004
2023-03-27T14:25:32.941Z,1003.9
2023-03-27T14:26:48.880Z,1003.9
2023-03-27T14:27:50.000Z,1004
2023-03-27T14:29:07.000Z,1003.9
2023-03-27T14:30:35.505Z,1003.9
2023-03-27T14:31:38.000Z,1003.8
2023-03-27T14:33:08.134Z,1003.9
2023-03-27T14:34:10.000Z,1003.9
2023-03-27T14:35:40.279Z,1003.8
2023-03-27T14:36:43.000Z,1003.8
2023-03-27T14:38:12.666Z,1003.9
2023-03-27T14:39:28.860Z,1003.9
2023-03-27T14:40:45.300Z,1003.8
2023-03-27T14:41:47.000Z,1003.8
2023-03-27T14:43:17.441Z,1003.8
2023-03-27T14:44:20.000Z,1003.8
2023-03-27T14:45:36.000Z,1003.8
2023-03-27T14:46:51.000Z,1003.8
2023-03-27T14:48:21.508Z,1003.7
2023-03-27T14:49:37.427Z,1003.8
2023-03-27T14:50:53.868Z,1003.8
2023-03-27T14:52:42.281Z,1003.8
2023-03-27T14:53:12.000Z,1003.7
2023-03-27T14:54:41.228Z,1003.8
2023-03-27T14:55:56.439Z,1003.8
2023-03-27T14:56:58.000Z,1003.8
2023-03-27T14:58:26.870Z,1003.9
2023-03-27T14:58:53.000Z,1003.8
2023-03-27T14:59:43.310Z,1003.8
2023-03-27T15:00:46.000Z,1003.8
2023-03-27T15:02:15.452Z,1003.8
2023-03-27T15:03:31.900Z,1003.7
2023-03-27T15:06:04.034Z,1003.8
2023-03-27T15:07:20.228Z,1003.8
2023-03-27T15:08:36.422Z,1003.8
2023-03-27T15:09:52.876Z,1003.6
2023-03-27T15:11:09.058Z,1003.8
2023-03-27T15:12:25.256Z,1003.7
2023-03-27T15:13:41.198Z,1003.8
2023-03-27T15:14:57.392Z,1003.6
2023-03-27T15:16:12.851Z,1003.8
2023-03-27T15:18:20.131Z,1003.9
2023-03-27T15:18:44.989Z,1003.9
2023-03-27T15:20:25.502Z,1004
2023-03-27T15:21:17.376Z,1004
2023-03-27T15:22:33.818Z,1004
2023-03-27T15:23:49.047Z,1004.1
2023-03-27T15:25:05.239Z,1004.1
2023-03-27T15:26:20.458Z,1004.2
2023-03-27T15:27:36.399Z,1004.2
2023-03-27T15:28:51.610Z,1004.2
2023-03-27T15:30:07.803Z,1004.3
2023-03-27T15:31:10.000Z,1004.2
2023-03-27T15:32:40.190Z,1004.3
2023-03-27T15:33:56.645Z,1004.2
2023-03-27T15:34:59.000Z,1004.2
2023-03-27T15:36:15.000Z,1004.3
2023-03-27T15:37:45.212Z,1004.3
2023-03-27T15:38:11.000Z,1004.3
2023-03-27T15:39:01.418Z,1004.2
2023-03-27T15:40:04.000Z,1004.2
2023-03-27T15:41:33.790Z,1004.3
2023-03-27T15:42:36.000Z,1004.2
2023-03-27T15:45:22.127Z,1004.3
2023-03-27T15:46:37.337Z,1004.3
2023-03-27T15:47:53.531Z,1004.3
2023-03-27T15:48:56.000Z,1004.3
2023-03-27T15:50:12.000Z,1004.3
2023-03-27T15:51:42.112Z,1004.3
2023-03-27T15:52:58.306Z,1004.3
2023-03-27T15:54:13.526Z,1004.3
2023-03-27T15:55:28.736Z,1004.3
2023-03-27T15:56:44.211Z,1004.4
2023-03-27T15:57:46.000Z,1004.4
2023-03-27T15:59:16.594Z,1004.4
2023-03-27T16:00:19.000Z,1004.4
2023-03-27T16:00:58.000Z,1004.5
2023-03-27T16:01:47.748Z,1004.4
2023-03-27T16:02:50.000Z,1004.4
2023-03-27T16:04:20.388Z,1004.4
2023-03-27T16:05:36.330Z,1004.5
2023-03-27T16:07:19.000Z,1004.5
2023-03-27T16:08:08.717Z,1004.4
2023-03-27T16:09:24.911Z,1004.4